sensor_id;sensor_type;location;lat;lon;timestamp;pressure;altitude;pressure_sealevel;temperature;humidity
81057;BME280;70563;50.084;14.468;2023-12-29T00:01:30;98547.88;;;8.22;70.88
81057;BME280;70563;50.084;14.468;2023-12-29T00:03:56;98543.94;;;8.18;70.91
81057;BME280;70563;50.084;14.468;2023-12-29T00:06:21;98544.78;;;8.10;70.89
81057;BME280;70563;50.084;14.468;2023-12-29T00:08:46;98536.59;;;8.05;71.01
81057;BME280;70563;50.084;14.468;2023-12-29T00:11:19;98541.03;;;8.04;71.31
81057;BME280;70563;50.084;14.468;2023-12-29T00:13:45;98545.28;;;8.05;71.31
81057;BME280;70563;50.084;14.468;2023-12-29T00:16:10;98537.91;;;8.09;71.09
81057;BME280;70563;50.084;14.468;2023-12-29T00:18:39;98533.63;;;8.08;71.31
81057;BME280;70563;50.084;14.468;2023-12-29T00:21:05;98541.16;;;8.11;71.27
81057;BME280;70563;50.084;14.468;2023-12-29T00:23:30;98545.91;;;8.16;70.81
81057;BME280;70563;50.084;14.468;2023-12-29T00:25:56;98546.91;;;8.15;70.94
81057;BME280;70563;50.084;14.468;2023-12-29T00:28:21;98552.66;;;8.18;70.82
81057;BME280;70563;50.084;14.468;2023-12-29T00:30:46;98549.38;;;8.16;71.01
81057;BME280;70563;50.084;14.468;2023-12-29T00:33:12;98553.31;;;8.20;70.97
81057;BME280;70563;50.084;14.468;2023-12-29T00:35:37;98547.38;;;8.18;70.69
81057;BME280;70563;50.084;14.468;2023-12-29T00:38:04;98547.06;;;8.21;70.43
81057;BME280;70563;50.084;14.468;2023-12-29T00:40:30;98549.50;;;8.23;70.76
81057;BME280;70563;50.084;14.468;2023-12-29T00:42:55;98552.56;;;8.35;70.35
81057;BME280;70563;50.084;14.468;2023-12-29T00:45:20;98565.72;;;8.35;70.44
81057;BME280;70563;50.084;14.468;2023-12-29T00:47:46;98563.63;;;8.38;70.43
81057;BME280;70563;50.084;14.468;2023-12-29T00:50:13;98558.50;;;8.37;70.77
81057;BME280;70563;50.084;14.468;2023-12-29T00:52:39;98550.47;;;8.38;70.41
81057;BME280;70563;50.084;14.468;2023-12-29T00:55:04;98546.66;;;8.41;70.38
81057;BME280;70563;50.084;14.468;2023-12-29T00:57:30;98540.56;;;8.40;70.86
81057;BME280;70563;50.084;14.468;2023-12-29T00:59:55;98550.28;;;8.40;70.82
81057;BME280;70563;50.084;14.468;2023-12-29T01:02:20;98558.47;;;8.45;70.80
81057;BME280;70563;50.084;14.468;2023-12-29T01:04:46;98551.88;;;8.49;70.76
81057;BME280;70563;50.084;14.468;2023-12-29T01:07:11;98547.72;;;8.54;71.13
81057;BME280;70563;50.084;14.468;2023-12-29T01:09:38;98539.47;;;8.58;70.83
81057;BME280;70563;50.084;14.468;2023-12-29T01:12:05;98544.94;;;8.56;71.22
81057;BME280;70563;50.084;14.468;2023-12-29T01:14:30;98549.66;;;8.61;71.08
81057;BME280;70563;50.084;14.468;2023-12-29T01:16:56;98549.47;;;8.62;70.87
81057;BME280;70563;50.084;14.468;2023-12-29T01:19:21;98544.22;;;8.62;71.07
81057;BME280;70563;50.084;14.468;2023-12-29T01:21:46;98542.25;;;8.64;71.32
81057;BME280;70563;50.084;14.468;2023-12-29T01:24:11;98546.69;;;8.64;70.91
81057;BME280;70563;50.084;14.468;2023-12-29T01:26:37;98564.13;;;8.65;71.37
81057;BME280;70563;50.084;14.468;2023-12-29T01:29:04;98555.22;;;8.66;71.25
81057;BME280;70563;50.084;14.468;2023-12-29T01:31:30;98555.22;;;8.66;71.60
81057;BME280;70563;50.084;14.468;2023-12-29T01:33:58;98556.69;;;8.68;71.34
81057;BME280;70563;50.084;14.468;2023-12-29T01:36:24;98550.78;;;8.66;71.69
81057;BME280;70563;50.084;14.468;2023-12-29T01:38:49;98552.78;;;8.64;71.45
81057;BME280;70563;50.084;14.468;2023-12-29T01:41:15;98544.50;;;8.67;71.88
81057;BME280;70563;50.084;14.468;2023-12-29T01:46:25;98556.03;;;8.66;72.38
81057;BME280;70563;50.084;14.468;2023-12-29T01:48:51;98552.13;;;8.62;72.57
81057;BME280;70563;50.084;14.468;2023-12-29T01:51:17;98545.25;;;8.53;73.13
81057;BME280;70563;50.084;14.468;2023-12-29T01:53:45;98550.53;;;8.53;73.04
81057;BME280;70563;50.084;14.468;2023-12-29T01:56:10;98545.44;;;8.51;73.12
81057;BME280;70563;50.084;14.468;2023-12-29T01:58:36;98542.00;;;8.51;73.54
81057;BME280;70563;50.084;14.468;2023-12-29T02:01:03;98536.38;;;8.54;73.70
81057;BME280;70563;50.084;14.468;2023-12-29T02:03:30;98533.22;;;8.59;73.47
81057;BME280;70563;50.084;14.468;2023-12-29T02:05:55;98542.78;;;8.60;73.55
81057;BME280;70563;50.084;14.468;2023-12-29T02:08:22;98533.06;;;8.60;73.58
81057;BME280;70563;50.084;14.468;2023-12-29T02:10:48;98536.84;;;8.58;73.61
81057;BME280;70563;50.084;14.468;2023-12-29T02:13:14;98536.84;;;8.58;73.63
81057;BME280;70563;50.084;14.468;2023-12-29T02:15:40;98517.41;;;8.59;73.49
81057;BME280;70563;50.084;14.468;2023-12-29T02:18:06;98523.16;;;8.62;73.70
81057;BME280;70563;50.084;14.468;2023-12-29T02:20:33;98513.34;;;8.56;73.94
81057;BME280;70563;50.084;14.468;2023-12-29T02:22:58;98511.56;;;8.48;74.35
81057;BME280;70563;50.084;14.468;2023-12-29T02:25:24;98500.78;;;8.35;75.02
81057;BME280;70563;50.084;14.468;2023-12-29T02:27:55;98504.97;;;8.21;75.84
81057;BME280;70563;50.084;14.468;2023-12-29T02:30:29;98500.06;;;8.10;76.10
81057;BME280;70563;50.084;14.468;2023-12-29T02:33:01;98500.31;;;7.92;76.57
81057;BME280;70563;50.084;14.468;2023-12-29T02:35:33;98494.59;;;7.89;77.34
81057;BME280;70563;50.084;14.468;2023-12-29T02:38:00;98491.16;;;7.80;77.79
81057;BME280;70563;50.084;14.468;2023-12-29T02:40:26;98483.72;;;7.92;76.76
81057;BME280;70563;50.084;14.468;2023-12-29T02:42:51;98494.84;;;8.02;76.55
81057;BME280;70563;50.084;14.468;2023-12-29T02:45:17;98495.34;;;8.05;76.55
81057;BME280;70563;50.084;14.468;2023-12-29T02:47:43;98481.34;;;8.13;76.19
81057;BME280;70563;50.084;14.468;2023-12-29T02:50:09;98475.38;;;8.19;75.74
81057;BME280;70563;50.084;14.468;2023-12-29T02:52:35;98464.22;;;8.17;75.60
81057;BME280;70563;50.084;14.468;2023-12-29T02:55:00;98465.84;;;8.18;75.67
81057;BME280;70563;50.084;14.468;2023-12-29T02:57:26;98480.78;;;8.26;75.14
81057;BME280;70563;50.084;14.468;2023-12-29T02:59:51;98482.06;;;8.30;75.56
81057;BME280;70563;50.084;14.468;2023-12-29T03:02:17;98475.00;;;8.30;75.12
81057;BME280;70563;50.084;14.468;2023-12-29T03:04:42;98477.06;;;8.43;74.73
81057;BME280;70563;50.084;14.468;2023-12-29T03:07:08;98472.97;;;8.41;74.49
81057;BME280;70563;50.084;14.468;2023-12-29T03:09:33;98474.78;;;8.40;74.68
81057;BME280;70563;50.084;14.468;2023-12-29T03:11:58;98471.97;;;8.42;74.76
81057;BME280;70563;50.084;14.468;2023-12-29T03:14:24;98462.63;;;8.39;74.53
81057;BME280;70563;50.084;14.468;2023-12-29T03:16:49;98462.72;;;8.46;74.21
81057;BME280;70563;50.084;14.468;2023-12-29T03:19:15;98458.47;;;8.45;74.40
81057;BME280;70563;50.084;14.468;2023-12-29T03:21:40;98456.84;;;8.44;74.22
81057;BME280;70563;50.084;14.468;2023-12-29T03:24:06;98446.66;;;8.41;74.25
81057;BME280;70563;50.084;14.468;2023-12-29T03:26:31;98443.19;;;8.17;74.76
81057;BME280;70563;50.084;14.468;2023-12-29T03:28:56;98444.22;;;8.08;75.29
81057;BME280;70563;50.084;14.468;2023-12-29T03:31:22;98444.41;;;7.98;76.06
81057;BME280;70563;50.084;14.468;2023-12-29T03:33:47;98431.69;;;7.87;76.12
81057;BME280;70563;50.084;14.468;2023-12-29T03:36:13;98434.16;;;7.80;76.60
81057;BME280;70563;50.084;14.468;2023-12-29T03:38:38;98427.59;;;7.76;76.20
81057;BME280;70563;50.084;14.468;2023-12-29T03:41:04;98436.16;;;7.78;76.33
81057;BME280;70563;50.084;14.468;2023-12-29T03:43:29;98431.91;;;7.77;76.72
81057;BME280;70563;50.084;14.468;2023-12-29T03:45:55;98416.66;;;7.65;76.93
81057;BME280;70563;50.084;14.468;2023-12-29T03:48:20;98412.38;;;7.64;76.68
81057;BME280;70563;50.084;14.468;2023-12-29T03:50:46;98411.22;;;7.66;76.50
81057;BME280;70563;50.084;14.468;2023-12-29T03:53:11;98422.06;;;7.63;77.20
81057;BME280;70563;50.084;14.468;2023-12-29T03:55:36;98421.38;;;7.77;76.11
81057;BME280;70563;50.084;14.468;2023-12-29T03:58:03;98423.69;;;7.72;76.31
81057;BME280;70563;50.084;14.468;2023-12-29T04:00:28;98413.53;;;7.69;76.39
81057;BME280;70563;50.084;14.468;2023-12-29T04:02:53;98413.84;;;7.66;76.72
81057;BME280;70563;50.084;14.468;2023-12-29T04:05:19;98409.25;;;7.68;76.66
81057;BME280;70563;50.084;14.468;2023-12-29T04:07:44;98401.25;;;7.62;76.16
81057;BME280;70563;50.084;14.468;2023-12-29T04:10:10;98393.22;;;7.55;76.49
81057;BME280;70563;50.084;14.468;2023-12-29T04:12:36;98390.22;;;7.66;76.42
81057;BME280;70563;50.084;14.468;2023-12-29T04:15:05;98383.69;;;7.54;76.33
81057;BME280;70563;50.084;14.468;2023-12-29T04:17:30;98376.00;;;7.52;76.90
81057;BME280;70563;50.084;14.468;2023-12-29T04:19:56;98371.72;;;7.51;76.62
81057;BME280;70563;50.084;14.468;2023-12-29T04:22:21;98373.66;;;7.58;76.23
81057;BME280;70563;50.084;14.468;2023-12-29T04:24:47;98358.09;;;7.56;76.47
81057;BME280;70563;50.084;14.468;2023-12-29T04:27:14;98360.22;;;7.52;76.42
81057;BME280;70563;50.084;14.468;2023-12-29T04:29:39;98351.69;;;7.50;76.79
81057;BME280;70563;50.084;14.468;2023-12-29T04:32:05;98349.19;;;7.57;76.88
81057;BME280;70563;50.084;14.468;2023-12-29T04:34:30;98343.25;;;7.63;76.23
81057;BME280;70563;50.084;14.468;2023-12-29T04:36:56;98351.13;;;7.63;76.50
81057;BME280;70563;50.084;14.468;2023-12-29T04:39:21;98334.69;;;7.69;76.02
81057;BME280;70563;50.084;14.468;2023-12-29T04:41:46;98322.06;;;7.65;76.06
81057;BME280;70563;50.084;14.468;2023-12-29T04:44:12;98327.53;;;7.55;76.80
81057;BME280;70563;50.084;14.468;2023-12-29T04:46:37;98330.41;;;7.68;75.84
81057;BME280;70563;50.084;14.468;2023-12-29T04:49:02;98335.66;;;7.68;76.66
81057;BME280;70563;50.084;14.468;2023-12-29T04:51:28;98332.09;;;7.61;76.58
81057;BME280;70563;50.084;14.468;2023-12-29T04:53:53;98311.66;;;7.71;75.91
81057;BME280;70563;50.084;14.468;2023-12-29T04:56:18;98319.88;;;7.68;75.81
81057;BME280;70563;50.084;14.468;2023-12-29T04:58:44;98326.13;;;7.67;76.15
81057;BME280;70563;50.084;14.468;2023-12-29T05:01:09;98332.41;;;7.66;75.93
81057;BME280;70563;50.084;14.468;2023-12-29T05:03:34;98338.41;;;7.75;75.54
81057;BME280;70563;50.084;14.468;2023-12-29T05:06:00;98347.31;;;7.74;75.97
81057;BME280;70563;50.084;14.468;2023-12-29T05:08:25;98357.59;;;7.84;75.32
81057;BME280;70563;50.084;14.468;2023-12-29T05:10:51;98358.38;;;7.61;76.40
81057;BME280;70563;50.084;14.468;2023-12-29T05:13:16;98361.34;;;7.58;76.66
81057;BME280;70563;50.084;14.468;2023-12-29T05:15:41;98366.25;;;7.61;76.27
81057;BME280;70563;50.084;14.468;2023-12-29T05:18:07;98363.78;;;7.60;75.98
81057;BME280;70563;50.084;14.468;2023-12-29T05:20:32;98368.84;;;7.69;75.96
81057;BME280;70563;50.084;14.468;2023-12-29T05:22:58;98370.53;;;7.62;75.86
81057;BME280;70563;50.084;14.468;2023-12-29T05:25:23;98361.47;;;7.65;75.78
81057;BME280;70563;50.084;14.468;2023-12-29T05:27:49;98368.66;;;7.71;75.68
81057;BME280;70563;50.084;14.468;2023-12-29T05:30:15;98375.03;;;7.76;75.81
81057;BME280;70563;50.084;14.468;2023-12-29T05:32:41;98373.97;;;7.63;75.83
81057;BME280;70563;50.084;14.468;2023-12-29T05:35:06;98378.00;;;7.82;75.00
81057;BME280;70563;50.084;14.468;2023-12-29T05:37:32;98361.59;;;7.71;75.59
81057;BME280;70563;50.084;14.468;2023-12-29T05:39:57;98368.47;;;7.72;75.62
81057;BME280;70563;50.084;14.468;2023-12-29T05:42:22;98363.03;;;7.82;74.79
81057;BME280;70563;50.084;14.468;2023-12-29T05:44:48;98370.03;;;7.90;74.54
81057;BME280;70563;50.084;14.468;2023-12-29T05:47:13;98363.75;;;7.99;74.34
81057;BME280;70563;50.084;14.468;2023-12-29T05:49:39;98354.56;;;7.95;74.05
81057;BME280;70563;50.084;14.468;2023-12-29T05:52:07;98359.69;;;7.88;74.34
81057;BME280;70563;50.084;14.468;2023-12-29T05:54:33;98356.88;;;7.90;73.93
81057;BME280;70563;50.084;14.468;2023-12-29T05:56:59;98371.31;;;7.94;73.82
81057;BME280;70563;50.084;14.468;2023-12-29T05:59:24;98371.88;;;8.12;73.32
81057;BME280;70563;50.084;14.468;2023-12-29T06:01:49;98370.41;;;8.10;73.07
81057;BME280;70563;50.084;14.468;2023-12-29T06:04:15;98380.78;;;8.03;73.54
81057;BME280;70563;50.084;14.468;2023-12-29T06:06:43;98373.59;;;7.97;73.53
81057;BME280;70563;50.084;14.468;2023-12-29T06:09:09;98366.91;;;8.17;73.08
81057;BME280;70563;50.084;14.468;2023-12-29T06:11:35;98366.66;;;8.04;73.49
81057;BME280;70563;50.084;14.468;2023-12-29T06:14:01;98355.25;;;8.12;73.45
81057;BME280;70563;50.084;14.468;2023-12-29T06:16:26;98359.81;;;8.18;73.48
81057;BME280;70563;50.084;14.468;2023-12-29T06:18:52;98362.28;;;8.19;73.12
81057;BME280;70563;50.084;14.468;2023-12-29T06:21:18;98336.69;;;8.13;73.45
81057;BME280;70563;50.084;14.468;2023-12-29T06:23:44;98351.81;;;8.11;73.82
81057;BME280;70563;50.084;14.468;2023-12-29T06:26:20;98338.03;;;8.09;73.65
81057;BME280;70563;50.084;14.468;2023-12-29T06:28:46;98336.03;;;8.11;73.45
81057;BME280;70563;50.084;14.468;2023-12-29T06:31:12;98335.22;;;8.11;73.48
81057;BME280;70563;50.084;14.468;2023-12-29T06:33:44;98321.91;;;8.12;73.21
81057;BME280;70563;50.084;14.468;2023-12-29T06:36:09;98325.16;;;8.14;72.45
81057;BME280;70563;50.084;14.468;2023-12-29T06:38:36;98325.72;;;8.24;72.07
81057;BME280;70563;50.084;14.468;2023-12-29T06:41:02;98327.63;;;8.16;71.94
81057;BME280;70563;50.084;14.468;2023-12-29T06:43:28;98335.69;;;8.14;72.48
81057;BME280;70563;50.084;14.468;2023-12-29T06:45:53;98347.88;;;8.07;72.83
81057;BME280;70563;50.084;14.468;2023-12-29T06:48:19;98342.22;;;8.18;71.86
81057;BME280;70563;50.084;14.468;2023-12-29T06:50:44;98342.94;;;8.12;72.12
81057;BME280;70563;50.084;14.468;2023-12-29T06:53:09;98357.00;;;8.19;72.35
81057;BME280;70563;50.084;14.468;2023-12-29T06:55:35;98347.72;;;8.32;71.24
81057;BME280;70563;50.084;14.468;2023-12-29T06:58:00;98354.94;;;8.38;71.31
81057;BME280;70563;50.084;14.468;2023-12-29T07:00:25;98368.53;;;8.41;71.26
81057;BME280;70563;50.084;14.468;2023-12-29T07:02:51;98357.59;;;8.38;71.20
81057;BME280;70563;50.084;14.468;2023-12-29T07:05:16;98362.84;;;8.38;72.02
81057;BME280;70563;50.084;14.468;2023-12-29T07:07:41;98363.47;;;8.40;71.22
81057;BME280;70563;50.084;14.468;2023-12-29T07:10:07;98368.09;;;8.38;71.42
81057;BME280;70563;50.084;14.468;2023-12-29T07:12:33;98368.53;;;8.41;70.92
81057;BME280;70563;50.084;14.468;2023-12-29T07:14:58;98373.00;;;8.41;71.28
81057;BME280;70563;50.084;14.468;2023-12-29T07:17:23;98373.66;;;8.43;71.10
81057;BME280;70563;50.084;14.468;2023-12-29T07:19:49;98371.50;;;8.46;70.64
81057;BME280;70563;50.084;14.468;2023-12-29T07:22:15;98365.38;;;8.46;70.69
81057;BME280;70563;50.084;14.468;2023-12-29T07:24:41;98350.06;;;8.49;70.92
81057;BME280;70563;50.084;14.468;2023-12-29T07:27:06;98363.06;;;8.51;70.54
81057;BME280;70563;50.084;14.468;2023-12-29T07:29:34;98362.34;;;8.57;70.05
81057;BME280;70563;50.084;14.468;2023-12-29T07:31:59;98351.81;;;8.57;69.75
81057;BME280;70563;50.084;14.468;2023-12-29T07:34:24;98360.63;;;8.64;70.22
81057;BME280;70563;50.084;14.468;2023-12-29T07:36:50;98369.44;;;8.71;69.26
81057;BME280;70563;50.084;14.468;2023-12-29T07:39:16;98365.44;;;8.75;69.25
81057;BME280;70563;50.084;14.468;2023-12-29T07:41:42;98361.84;;;8.76;68.92
81057;BME280;70563;50.084;14.468;2023-12-29T07:44:09;98366.63;;;8.73;69.21
81057;BME280;70563;50.084;14.468;2023-12-29T07:46:35;98373.53;;;8.74;68.99
81057;BME280;70563;50.084;14.468;2023-12-29T07:49:00;98385.88;;;8.73;69.17
81057;BME280;70563;50.084;14.468;2023-12-29T07:51:26;98369.91;;;8.75;68.40
81057;BME280;70563;50.084;14.468;2023-12-29T07:53:51;98368.91;;;8.76;67.54
81057;BME280;70563;50.084;14.468;2023-12-29T07:56:16;98367.25;;;8.75;67.82
81057;BME280;70563;50.084;14.468;2023-12-29T07:58:42;98358.91;;;8.71;67.20
81057;BME280;70563;50.084;14.468;2023-12-29T08:01:07;98360.84;;;8.77;67.29
81057;BME280;70563;50.084;14.468;2023-12-29T08:03:33;98363.47;;;8.77;67.32
81057;BME280;70563;50.084;14.468;2023-12-29T08:05:58;98364.63;;;8.75;67.53
81057;BME280;70563;50.084;14.468;2023-12-29T08:08:24;98379.88;;;8.79;67.72
81057;BME280;70563;50.084;14.468;2023-12-29T08:10:49;98375.09;;;8.83;67.88
81057;BME280;70563;50.084;14.468;2023-12-29T08:13:14;98381.63;;;8.87;67.49
81057;BME280;70563;50.084;14.468;2023-12-29T08:15:40;98385.72;;;8.90;67.79
81057;BME280;70563;50.084;14.468;2023-12-29T08:18:06;98380.09;;;8.93;67.41
81057;BME280;70563;50.084;14.468;2023-12-29T08:20:31;98393.19;;;9.01;67.04
81057;BME280;70563;50.084;14.468;2023-12-29T08:22:57;98385.84;;;9.11;66.47
81057;BME280;70563;50.084;14.468;2023-12-29T08:25:23;98409.00;;;9.16;66.43
81057;BME280;70563;50.084;14.468;2023-12-29T08:27:49;98390.09;;;9.27;65.64
81057;BME280;70563;50.084;14.468;2023-12-29T08:30:14;98408.91;;;9.39;65.43
81057;BME280;70563;50.084;14.468;2023-12-29T08:32:39;98414.09;;;9.47;64.04
81057;BME280;70563;50.084;14.468;2023-12-29T08:35:05;98426.00;;;9.43;64.82
81057;BME280;70563;50.084;14.468;2023-12-29T08:37:31;98442.44;;;9.45;64.80
81057;BME280;70563;50.084;14.468;2023-12-29T08:39:58;98441.25;;;9.62;63.74
81057;BME280;70563;50.084;14.468;2023-12-29T08:42:24;98436.19;;;9.46;64.26
81057;BME280;70563;50.084;14.468;2023-12-29T08:44:49;98444.19;;;9.38;63.55
81057;BME280;70563;50.084;14.468;2023-12-29T08:47:15;98449.25;;;9.39;63.65
81057;BME280;70563;50.084;14.468;2023-12-29T08:49:40;98454.06;;;9.36;64.14
81057;BME280;70563;50.084;14.468;2023-12-29T08:52:08;98454.16;;;9.42;64.08
81057;BME280;70563;50.084;14.468;2023-12-29T08:54:34;98465.78;;;9.48;63.97
81057;BME280;70563;50.084;14.468;2023-12-29T08:57:00;98442.28;;;9.46;63.71
81057;BME280;70563;50.084;14.468;2023-12-29T08:59:25;98455.25;;;9.48;64.23
81057;BME280;70563;50.084;14.468;2023-12-29T09:01:51;98486.69;;;9.35;64.27
81057;BME280;70563;50.084;14.468;2023-12-29T09:04:16;98466.53;;;9.42;64.22
81057;BME280;70563;50.084;14.468;2023-12-29T09:06:41;98460.44;;;9.41;64.65
81057;BME280;70563;50.084;14.468;2023-12-29T09:09:07;98456.69;;;9.36;64.88
81057;BME280;70563;50.084;14.468;2023-12-29T09:11:37;98449.97;;;9.48;64.85
81057;BME280;70563;50.084;14.468;2023-12-29T09:14:03;98472.34;;;9.37;64.89
81057;BME280;70563;50.084;14.468;2023-12-29T09:16:28;98464.78;;;9.49;64.81
81057;BME280;70563;50.084;14.468;2023-12-29T09:18:53;98456.16;;;9.40;64.86
81057;BME280;70563;50.084;14.468;2023-12-29T09:21:19;98458.09;;;9.46;64.73
81057;BME280;70563;50.084;14.468;2023-12-29T09:23:44;98460.25;;;9.58;63.87
81057;BME280;70563;50.084;14.468;2023-12-29T09:26:09;98447.78;;;9.66;63.53
81057;BME280;70563;50.084;14.468;2023-12-29T09:28:35;98465.63;;;9.64;63.34
81057;BME280;70563;50.084;14.468;2023-12-29T09:31:00;98461.78;;;9.82;63.37
81057;BME280;70563;50.084;14.468;2023-12-29T09:33:26;98450.28;;;10.04;61.77
81057;BME280;70563;50.084;14.468;2023-12-29T09:35:51;98467.19;;;10.24;61.26
81057;BME280;70563;50.084;14.468;2023-12-29T09:38:18;98448.44;;;10.19;60.73
81057;BME280;70563;50.084;14.468;2023-12-29T09:40:44;98460.78;;;10.34;59.65
81057;BME280;70563;50.084;14.468;2023-12-29T09:43:09;98460.00;;;10.54;59.99
81057;BME280;70563;50.084;14.468;2023-12-29T09:45:37;98469.09;;;10.52;59.23
81057;BME280;70563;50.084;14.468;2023-12-29T09:48:06;98458.78;;;10.78;58.34
81057;BME280;70563;50.084;14.468;2023-12-29T09:50:32;98470.78;;;11.02;58.51
81057;BME280;70563;50.084;14.468;2023-12-29T09:53:01;98467.50;;;11.00;57.50
81057;BME280;70563;50.084;14.468;2023-12-29T09:55:27;98467.88;;;11.25;57.61
81057;BME280;70563;50.084;14.468;2023-12-29T09:57:54;98483.50;;;11.20;57.70
81057;BME280;70563;50.084;14.468;2023-12-29T10:00:20;98476.03;;;11.59;56.23
81057;BME280;70563;50.084;14.468;2023-12-29T10:02:46;98462.16;;;11.50;56.28
81057;BME280;70563;50.084;14.468;2023-12-29T10:05:14;98466.56;;;11.77;56.41
81057;BME280;70563;50.084;14.468;2023-12-29T10:07:41;98470.53;;;11.88;55.52
81057;BME280;70563;50.084;14.468;2023-12-29T10:10:14;98459.78;;;11.96;55.87
81057;BME280;70563;50.084;14.468;2023-12-29T10:12:44;98464.97;;;12.24;54.50
81057;BME280;70563;50.084;14.468;2023-12-29T10:15:19;98455.78;;;11.72;55.21
81057;BME280;70563;50.084;14.468;2023-12-29T10:23:10;98450.19;;;12.63;52.11
81057;BME280;70563;50.084;14.468;2023-12-29T10:25:38;98441.97;;;12.32;52.56
81057;BME280;70563;50.084;14.468;2023-12-29T10:28:05;98439.38;;;12.58;52.44
81057;BME280;70563;50.084;14.468;2023-12-29T10:30:31;98432.84;;;14.05;49.17
81057;BME280;70563;50.084;14.468;2023-12-29T10:32:57;98429.84;;;14.26;47.65
81057;BME280;70563;50.084;14.468;2023-12-29T10:35:23;98442.53;;;14.24;47.78
81057;BME280;70563;50.084;14.468;2023-12-29T10:37:49;98433.28;;;14.97;46.25
81057;BME280;70563;50.084;14.468;2023-12-29T10:40:18;98446.50;;;15.28;44.50
81057;BME280;70563;50.084;14.468;2023-12-29T10:42:54;98439.19;;;15.86;43.29
81057;BME280;70563;50.084;14.468;2023-12-29T10:45:20;98433.66;;;17.13;40.63
81057;BME280;70563;50.084;14.468;2023-12-29T10:47:46;98429.72;;;16.50;41.06
81057;BME280;70563;50.084;14.468;2023-12-29T10:50:12;98430.19;;;16.89;40.34
81057;BME280;70563;50.084;14.468;2023-12-29T10:52:38;98418.00;;;15.11;43.49
81057;BME280;70563;50.084;14.468;2023-12-29T10:55:07;98430.38;;;14.42;45.38
81057;BME280;70563;50.084;14.468;2023-12-29T10:57:33;98413.59;;;14.48;45.84
81057;BME280;70563;50.084;14.468;2023-12-29T10:59:59;98413.66;;;13.38;48.16
81057;BME280;70563;50.084;14.468;2023-12-29T11:02:28;98412.91;;;12.78;50.26
81057;BME280;70563;50.084;14.468;2023-12-29T11:07:39;98405.81;;;11.91;53.40
81057;BME280;70563;50.084;14.468;2023-12-29T11:10:06;98424.22;;;12.19;52.13
81057;BME280;70563;50.084;14.468;2023-12-29T11:12:33;98408.31;;;11.64;53.90
81057;BME280;70563;50.084;14.468;2023-12-29T11:15:04;98411.81;;;11.71;53.62
81057;BME280;70563;50.084;14.468;2023-12-29T11:17:31;98416.91;;;12.27;51.55
81057;BME280;70563;50.084;14.468;2023-12-29T11:19:58;98406.72;;;13.44;49.08
81057;BME280;70563;50.084;14.468;2023-12-29T11:22:27;98396.22;;;14.14;46.99
81057;BME280;70563;50.084;14.468;2023-12-29T11:24:53;98397.69;;;14.10;47.06
81057;BME280;70563;50.084;14.468;2023-12-29T11:27:19;98405.41;;;14.56;46.01
81057;BME280;70563;50.084;14.468;2023-12-29T11:29:45;98389.31;;;14.06;47.57
81057;BME280;70563;50.084;14.468;2023-12-29T11:32:16;98396.53;;;13.41;48.59
81057;BME280;70563;50.084;14.468;2023-12-29T11:34:56;98406.16;;;12.55;50.71
81057;BME280;70563;50.084;14.468;2023-12-29T11:37:37;98394.31;;;13.18;49.13
81057;BME280;70563;50.084;14.468;2023-12-29T11:42:54;98393.56;;;14.52;45.50
81057;BME280;70563;50.084;14.468;2023-12-29T11:45:29;98378.06;;;14.99;44.60
81057;BME280;70563;50.084;14.468;2023-12-29T11:47:54;98372.03;;;15.28;44.18
81057;BME280;70563;50.084;14.468;2023-12-29T11:50:35;98367.78;;;15.57;43.24
81057;BME280;70563;50.084;14.468;2023-12-29T11:53:08;98369.59;;;14.84;43.87
81057;BME280;70563;50.084;14.468;2023-12-29T11:55:37;98361.22;;;14.80;44.93
81057;BME280;70563;50.084;14.468;2023-12-29T12:00:47;98366.13;;;13.95;46.58
81057;BME280;70563;50.084;14.468;2023-12-29T12:05:54;98358.66;;;13.00;49.25
81057;BME280;70563;50.084;14.468;2023-12-29T12:08:31;98361.09;;;13.02;49.63
81057;BME280;70563;50.084;14.468;2023-12-29T12:10:59;98359.88;;;12.25;51.80
81057;BME280;70563;50.084;14.468;2023-12-29T12:13:46;98343.53;;;11.95;53.14
81057;BME280;70563;50.084;14.468;2023-12-29T12:19:12;98344.81;;;12.12;53.25
81057;BME280;70563;50.084;14.468;2023-12-29T12:21:38;98352.81;;;11.71;54.65
81057;BME280;70563;50.084;14.468;2023-12-29T12:24:04;98344.63;;;12.14;53.32
81057;BME280;70563;50.084;14.468;2023-12-29T12:26:33;98345.59;;;11.99;54.26
81057;BME280;70563;50.084;14.468;2023-12-29T12:29:02;98338.28;;;12.08;54.25
81057;BME280;70563;50.084;14.468;2023-12-29T12:31:28;98332.34;;;11.99;54.06
81057;BME280;70563;50.084;14.468;2023-12-29T12:33:54;98338.59;;;11.78;54.84
81057;BME280;70563;50.084;14.468;2023-12-29T12:36:20;98329.44;;;11.74;55.68
81057;BME280;70563;50.084;14.468;2023-12-29T12:38:51;98332.28;;;11.73;55.54
81057;BME280;70563;50.084;14.468;2023-12-29T12:41:17;98330.91;;;11.84;54.49
81057;BME280;70563;50.084;14.468;2023-12-29T12:43:50;98326.59;;;11.76;54.92
81057;BME280;70563;50.084;14.468;2023-12-29T12:46:22;98339.34;;;11.59;54.98
81057;BME280;70563;50.084;14.468;2023-12-29T12:48:50;98333.41;;;11.50;55.16
81057;BME280;70563;50.084;14.468;2023-12-29T12:51:16;98325.63;;;11.84;54.34
81057;BME280;70563;50.084;14.468;2023-12-29T12:53:44;98336.06;;;11.50;54.83
81057;BME280;70563;50.084;14.468;2023-12-29T12:56:10;98332.81;;;11.55;54.26
81057;BME280;70563;50.084;14.468;2023-12-29T12:58:36;98328.25;;;11.29;55.50
81057;BME280;70563;50.084;14.468;2023-12-29T13:01:02;98323.31;;;11.19;55.30
81057;BME280;70563;50.084;14.468;2023-12-29T13:03:28;98329.72;;;11.03;56.29
81057;BME280;70563;50.084;14.468;2023-12-29T13:05:56;98327.72;;;11.05;56.25
81057;BME280;70563;50.084;14.468;2023-12-29T13:08:23;98337.97;;;11.22;56.11
81057;BME280;70563;50.084;14.468;2023-12-29T13:10:50;98335.44;;;11.07;56.50
81057;BME280;70563;50.084;14.468;2023-12-29T13:13:15;98337.50;;;11.12;56.11
81057;BME280;70563;50.084;14.468;2023-12-29T13:15:48;98340.09;;;11.05;55.64